sensor_id;sensor_type;location;lat;lon;timestamp;temperature;humidity
69204;DHT22;56317;27.658;85.326;2022-11-11T06:01:43;44.30;29.80
69204;DHT22;56317;27.658;85.326;2022-11-11T06:04:12;44.80;28.70
69204;DHT22;56317;27.658;85.326;2022-11-11T06:06:39;44.50;29.00
69204;DHT22;56317;27.658;85.326;2022-11-11T06:09:07;44.60;28.40
69204;DHT22;56317;27.658;85.326;2022-11-11T06:11:34;44.10;28.30
69204;DHT22;56317;27.658;85.326;2022-11-11T06:14:01;43.80;28.00
69204;DHT22;56317;27.658;85.326;2022-11-11T06:16:29;43.50;28.30
69204;DHT22;56317;27.658;85.326;2022-11-11T06:18:56;43.60;28.00
69204;DHT22;56317;27.658;85.326;2022-11-11T06:21:26;43.10;28.10
69204;DHT22;56317;27.658;85.326;2022-11-11T06:24:02;43.10;27.80
69204;DHT22;56317;27.658;85.326;2022-11-11T06:26:29;42.60;28.40
69204;DHT22;56317;27.658;85.326;2022-11-11T06:28:57;43.60;28.40
69204;DHT22;56317;27.658;85.326;2022-11-11T06:31:25;44.50;28.00
69204;DHT22;56317;27.658;85.326;2022-11-11T06:33:53;44.50;28.00
69204;DHT22;56317;27.658;85.326;2022-11-11T06:36:21;44.60;27.90
69204;DHT22;56317;27.658;85.326;2022-11-11T06:38:48;44.50;27.90
69204;DHT22;56317;27.658;85.326;2022-11-11T06:41:16;44.30;27.50
69204;DHT22;56317;27.658;85.326;2022-11-11T06:43:48;43.10;28.10
69204;DHT22;56317;27.658;85.326;2022-11-11T06:46:54;42.10;28.20
69204;DHT22;56317;27.658;85.326;2022-11-11T06:49:36;42.30;28.60
69204;DHT22;56317;27.658;85.326;2022-11-11T06:52:04;42.50;29.00
69204;DHT22;56317;27.658;85.326;2022-11-11T06:54:31;42.90;28.80
69204;DHT22;56317;27.658;85.326;2022-11-11T06:57:01;42.70;28.90
69204;DHT22;56317;27.658;85.326;2022-11-11T06:59:31;43.70;28.60
69204;DHT22;56317;27.658;85.326;2022-11-11T07:02:04;43.90;28.40
69204;DHT22;56317;27.658;85.326;2022-11-11T07:04:31;43.60;28.30
69204;DHT22;56317;27.658;85.326;2022-11-11T07:06:58;43.40;28.10
69204;DHT22;56317;27.658;85.326;2022-11-11T07:09:25;43.50;28.10
69204;DHT22;56317;27.658;85.326;2022-11-11T07:11:54;44.30;28.30
69204;DHT22;56317;27.658;85.326;2022-11-11T07:14:21;44.50;28.00
69204;DHT22;56317;27.658;85.326;2022-11-11T07:16:49;44.20;28.00
69204;DHT22;56317;27.658;85.326;2022-11-11T07:19:16;43.60;28.10
69204;DHT22;56317;27.658;85.326;2022-11-11T07:21:43;43.40;28.50
69204;DHT22;56317;27.658;85.326;2022-11-11T07:24:11;43.50;28.50
69204;DHT22;56317;27.658;85.326;2022-11-11T07:26:38;43.30;28.80
69204;DHT22;56317;27.658;85.326;2022-11-11T07:29:05;43.10;29.00
69204;DHT22;56317;27.658;85.326;2022-11-11T07:31:33;43.50;28.60
69204;DHT22;56317;27.658;85.326;2022-11-11T07:34:00;43.10;28.80
69204;DHT22;56317;27.658;85.326;2022-11-11T07:36:27;43.30;29.30
69204;DHT22;56317;27.658;85.326;2022-11-11T07:38:54;43.60;28.60
69204;DHT22;56317;27.658;85.326;2022-11-11T07:41:22;43.90;28.60
69204;DHT22;56317;27.658;85.326;2022-11-11T07:43:49;43.80;28.70
69204;DHT22;56317;27.658;85.326;2022-11-11T07:46:17;43.60;28.40
69204;DHT22;56317;27.658;85.326;2022-11-11T07:48:44;44.00;28.50
69204;DHT22;56317;27.658;85.326;2022-11-11T07:51:11;43.80;29.00
69204;DHT22;56317;27.658;85.326;2022-11-11T07:53:39;42.80;29.40
69204;DHT22;56317;27.658;85.326;2022-11-11T07:56:06;42.40;29.70
69204;DHT22;56317;27.658;85.326;2022-11-11T07:58:33;42.50;29.90
69204;DHT22;56317;27.658;85.326;2022-11-11T08:01:02;42.60;28.80
69204;DHT22;56317;27.658;85.326;2022-11-11T08:03:29;42.30;29.80
69204;DHT22;56317;27.658;85.326;2022-11-11T08:05:56;42.40;29.80
69204;DHT22;56317;27.658;85.326;2022-11-11T08:08:23;41.90;30.00
69204;DHT22;56317;27.658;85.326;2022-11-11T08:10:55;42.20;30.20
69204;DHT22;56317;27.658;85.326;2022-11-11T08:13:22;42.40;29.90
69204;DHT22;56317;27.658;85.326;2022-11-11T08:16:11;42.80;30.00
69204;DHT22;56317;27.658;85.326;2022-11-11T08:18:38;42.90;29.90
69204;DHT22;56317;27.658;85.326;2022-11-11T08:21:06;42.10;29.90
69204;DHT22;56317;27.658;85.326;2022-11-11T08:23:33;42.10;30.90
69204;DHT22;56317;27.658;85.326;2022-11-11T08:26:05;41.20;31.20
69204;DHT22;56317;27.658;85.326;2022-11-11T08:28:34;41.50;31.30
69204;DHT22;56317;27.658;85.326;2022-11-11T08:31:02;41.50;31.40
69204;DHT22;56317;27.658;85.326;2022-11-11T08:33:29;41.20;31.40
69204;DHT22;56317;27.658;85.326;2022-11-11T08:35:59;40.60;31.70
69204;DHT22;56317;27.658;85.326;2022-11-11T08:38:27;40.00;32.40
69204;DHT22;56317;27.658;85.326;2022-11-11T08:40:54;39.60;32.70
69204;DHT22;56317;27.658;85.326;2022-11-11T08:43:27;39.20;32.90
69204;DHT22;56317;27.658;85.326;2022-11-11T08:46:00;39.50;32.50
69204;DHT22;56317;27.658;85.326;2022-11-11T08:48:32;39.50;33.30
69204;DHT22;56317;27.658;85.326;2022-11-11T08:50:59;39.10;33.90
69204;DHT22;56317;27.658;85.326;2022-11-11T08:53:27;38.80;34.30
69204;DHT22;56317;27.658;85.326;2022-11-11T08:55:54;38.80;34.50
69204;DHT22;56317;27.658;85.326;2022-11-11T08:58:22;38.20;34.00
69204;DHT22;56317;27.658;85.326;2022-11-11T09:00:49;37.50;34.90
69204;DHT22;56317;27.658;85.326;2022-11-11T09:03:16;37.20;35.70
69204;DHT22;56317;27.658;85.326;2022-11-11T09:05:43;37.20;35.80
69204;DHT22;56317;27.658;85.326;2022-11-11T09:08:13;35.40;35.70
69204;DHT22;56317;27.658;85.326;2022-11-11T09:10:40;32.50;39.00
69204;DHT22;56317;27.658;85.326;2022-11-11T09:13:11;30.50;41.60
69204;DHT22;56317;27.658;85.326;2022-11-11T09:15:38;31.50;42.10
69204;DHT22;56317;27.658;85.326;2022-11-11T09:18:06;31.90;40.80
69204;DHT22;56317;27.658;85.326;2022-11-11T09:20:34;32.20;42.60
69204;DHT22;56317;27.658;85.326;2022-11-11T09:23:02;33.00;41.10
69204;DHT22;56317;27.658;85.326;2022-11-11T09:25:30;33.50;40.50
69204;DHT22;56317;27.658;85.326;2022-11-11T09:27:59;34.10;40.30
69204;DHT22;56317;27.658;85.326;2022-11-11T09:30:28;34.60;39.20
69204;DHT22;56317;27.658;85.326;2022-11-11T09:33:03;34.60;39.40
69204;DHT22;56317;27.658;85.326;2022-11-11T09:35:31;34.40;39.10
69204;DHT22;56317;27.658;85.326;2022-11-11T09:37:59;32.20;40.80
69204;DHT22;56317;27.658;85.326;2022-11-11T09:41:09;29.90;43.70
69204;DHT22;56317;27.658;85.326;2022-11-11T09:46:39;26.70;50.60
69204;DHT22;56317;27.658;85.326;2022-11-11T09:49:46;27.20;50.40
69204;DHT22;56317;27.658;85.326;2022-11-11T09:52:19;28.90;48.10
69204;DHT22;56317;27.658;85.326;2022-11-11T09:57:36;29.60;45.80
69204;DHT22;56317;27.658;85.326;2022-11-11T10:00:31;28.30;47.80
69204;DHT22;56317;27.658;85.326;2022-11-11T10:03:11;27.30;49.80
69204;DHT22;56317;27.658;85.326;2022-11-11T10:06:08;26.60;50.40
69204;DHT22;56317;27.658;85.326;2022-11-11T10:09:00;26.50;51.40
69204;DHT22;56317;27.658;85.326;2022-11-11T10:13:55;24.40;55.20
69204;DHT22;56317;27.658;85.326;2022-11-11T10:16:51;23.60;55.90
69204;DHT22;56317;27.658;85.326;2022-11-11T10:19:50;23.00;57.40
69204;DHT22;56317;27.658;85.326;2022-11-11T10:22:36;22.80;58.50
69204;DHT22;56317;27.658;85.326;2022-11-11T10:27:47;22.30;60.20
69204;DHT22;56317;27.658;85.326;2022-11-11T10:30:22;22.50;60.20
69204;DHT22;56317;27.658;85.326;2022-11-11T10:36:04;22.40;62.20
69204;DHT22;56317;27.658;85.326;2022-11-11T10:41:48;23.80;59.60
69204;DHT22;56317;27.658;85.326;2022-11-11T10:44:21;24.10;58.50
69204;DHT22;56317;27.658;85.326;2022-11-11T10:47:17;23.90;58.50
69204;DHT22;56317;27.658;85.326;2022-11-11T10:50:00;23.30;59.80
69204;DHT22;56317;27.658;85.326;2022-11-11T10:52:42;22.60;61.10
69204;DHT22;56317;27.658;85.326;2022-11-11T10:55:53;21.90;62.40
69204;DHT22;56317;27.658;85.326;2022-11-11T10:58:26;21.50;63.80
69204;DHT22;56317;27.658;85.326;2022-11-11T11:00:57;21.10;65.00
69204;DHT22;56317;27.658;85.326;2022-11-11T11:03:44;20.90;67.20
69204;DHT22;56317;27.658;85.326;2022-11-11T11:06:16;20.60;68.80
69204;DHT22;56317;27.658;85.326;2022-11-11T11:12:19;20.10;72.30
69204;DHT22;56317;27.658;85.326;2022-11-11T11:14:52;19.80;72.50
69204;DHT22;56317;27.658;85.326;2022-11-11T11:17:47;19.60;72.80
69204;DHT22;56317;27.658;85.326;2022-11-11T11:20:17;19.30;73.80
69204;DHT22;56317;27.658;85.326;2022-11-11T11:22:54;19.10;75.60
69204;DHT22;56317;27.658;85.326;2022-11-11T11:25:25;18.80;76.60
69204;DHT22;56317;27.658;85.326;2022-11-11T11:30:31;18.40;75.60
69204;DHT22;56317;27.658;85.326;2022-11-11T11:33:07;18.20;75.90
69204;DHT22;56317;27.658;85.326;2022-11-11T11:35:42;18.00;76.60
69204;DHT22;56317;27.658;85.326;2022-11-11T11:38:12;17.90;78.10
69204;DHT22;56317;27.658;85.326;2022-11-11T11:40:54;17.80;79.50
69204;DHT22;56317;27.658;85.326;2022-11-11T11:46:14;17.40;81.50
69204;DHT22;56317;27.658;85.326;2022-11-11T11:51:51;17.20;82.80
69204;DHT22;56317;27.658;85.326;2022-11-11T11:54:25;17.10;82.80
69204;DHT22;56317;27.658;85.326;2022-11-11T11:57:02;17.00;84.70
69204;DHT22;56317;27.658;85.326;2022-11-11T12:05:43;16.80;85.90
69204;DHT22;56317;27.658;85.326;2022-11-11T12:17:00;16.40;91.90
69204;DHT22;56317;27.658;85.326;2022-11-11T12:19:56;16.30;91.20
69204;DHT22;56317;27.658;85.326;2022-11-11T12:22:43;16.20;92.30
69204;DHT22;56317;27.658;85.326;2022-11-11T12:30:55;16.10;93.70
69204;DHT22;56317;27.658;85.326;2022-11-11T12:38:57;16.10;95.30
69204;DHT22;56317;27.658;85.326;2022-11-11T12:52:00;15.80;96.60
69204;DHT22;56317;27.658;85.326;2022-11-11T12:57:11;15.80;98.10
69204;DHT22;56317;27.658;85.326;2022-11-11T13:05:09;15.60;98.40
69204;DHT22;56317;27.658;85.326;2022-11-11T13:11:21;15.50;99.60
69204;DHT22;56317;27.658;85.326;2022-11-11T13:16:54;15.40;99.90
69204;DHT22;56317;27.658;85.326;2022-11-11T13:19:37;15.40;99.90
69204;DHT22;56317;27.658;85.326;2022-11-11T13:24:43;15.30;99.90
69204;DHT22;56317;27.658;85.326;2022-11-11T13:27:19;15.20;99.90
69204;DHT22;56317;27.658;85.326;2022-11-11T13:30:19;15.10;99.90
69204;DHT22;56317;27.658;85.326;2022-11-11T13:38:42;14.70;99.90
69204;DHT22;56317;27.658;85.326;2022-11-11T13:41:10;14.70;99.90
69204;DHT22;56317;27.658;85.326;2022-11-11T13:43:44;14.70;99.90
69204;DHT22;56317;27.658;85.326;2022-11-11T13:46:43;14.60;99.90
69204;DHT22;56317;27.658;85.326;2022-11-11T13:49:42;14.50;99.90
69204;DHT22;56317;27.658;85.326;2022-11-11T13:52:32;14.50;99.90
69204;DHT22;56317;27.658;85.326;2022-11-11T13:55:07;14.40;99.90
69204;DHT22;56317;27.658;85.326;2022-11-11T13:57:49;14.40;99.90
69204;DHT22;56317;27.658;85.326;2022-11-11T14:02:44;14.30;99.90
69204;DHT22;56317;27.658;85.326;2022-11-11T14:05:20;14.40;99.90
69204;DHT22;56317;27.658;85.326;2022-11-11T14:07:50;14.40;99.90
69204;DHT22;56317;27.658;85.326;2022-11-11T14:12:50;14.40;99.90
69204;DHT22;56317;27.658;85.326;2022-11-11T14:15:43;14.40;99.90
69204;DHT22;56317;27.658;85.326;2022-11-11T14:20:51;14.40;99.90
69204;DHT22;56317;27.658;85.326;2022-11-11T14:49:47;14.00;99.90
69204;DHT22;56317;27.658;85.326;2022-11-11T14:59:59;13.80;99.90
69204;DHT22;56317;27.658;85.326;2022-11-11T15:02:34;13.80;99.90
69204;DHT22;56317;27.658;85.326;2022-11-11T15:05:06;13.70;99.90
69204;DHT22;56317;27.658;85.326;2022-11-11T15:07:58;13.70;99.90
69204;DHT22;56317;27.658;85.326;2022-11-11T15:16:31;13.60;99.90
69204;DHT22;56317;27.658;85.326;2022-11-11T15:31:16;13.50;99.90
69204;DHT22;56317;27.658;85.326;2022-11-11T15:34:10;13.40;99.90
69204;DHT22;56317;27.658;85.326;2022-11-11T15:37:04;13.30;99.90
69204;DHT22;56317;27.658;85.326;2022-11-11T15:39:45;13.20;99.90
69204;DHT22;56317;27.658;85.326;2022-11-11T15:42:28;13.20;99.90
69204;DHT22;56317;27.658;85.326;2022-11-11T15:45:00;13.10;99.90
69204;DHT22;56317;27.658;85.326;2022-11-11T15:47:35;13.00;99.90
69204;DHT22;56317;27.658;85.326;2022-11-11T15:50:02;13.00;99.90
69204;DHT22;56317;27.658;85.326;2022-11-11T15:52:36;13.00;99.90
69204;DHT22;56317;27.658;85.326;2022-11-11T15:55:29;13.00;99.90
69204;DHT22;56317;27.658;85.326;2022-11-11T16:00:40;12.90;99.90
69204;DHT22;56317;27.658;85.326;2022-11-11T16:03:27;12.90;99.90
69204;DHT22;56317;27.658;85.326;2022-11-11T16:05:56;12.80;99.90
69204;DHT22;56317;27.658;85.326;2022-11-11T16:08:23;12.70;99.90
69204;DHT22;56317;27.658;85.326;2022-11-11T16:10:58;12.60;99.90
69204;DHT22;56317;27.658;85.326;2022-11-11T16:13:36;12.50;99.90
69204;DHT22;56317;27.658;85.326;2022-11-11T16:16:08;12.40;99.90
69204;DHT22;56317;27.658;85.326;2022-11-11T16:18:45;12.40;99.90
69204;DHT22;56317;27.658;85.326;2022-11-11T16:21:22;12.40;99.90
69204;DHT22;56317;27.658;85.326;2022-11-11T16:23:52;12.40;99.90
69204;DHT22;56317;27.658;85.326;2022-11-11T16:26:19;12.50;99.90
69204;DHT22;56317;27.658;85.326;2022-11-11T16:28:53;12.50;99.90
69204;DHT22;56317;27.658;85.326;2022-11-11T16:31:28;12.40;99.90
69204;DHT22;56317;27.658;85.326;2022-11-11T16:33:57;12.40;99.90
69204;DHT22;56317;27.658;85.326;2022-11-11T16:36:24;12.30;99.90
69204;DHT22;56317;27.658;85.326;2022-11-11T16:38:51;12.30;99.90
69204;DHT22;56317;27.658;85.326;2022-11-11T16:41:29;12.30;99.90
69204;DHT22;56317;27.658;85.326;2022-11-11T16:44:00;12.30;99.90
69204;DHT22;56317;27.658;85.326;2022-11-11T16:46:37;12.30;99.90
69204;DHT22;56317;27.658;85.326;2022-11-11T16:52:12;12.30;99.90
69204;DHT22;56317;27.658;85.326;2022-11-11T16:54:53;12.10;99.90
69204;DHT22;56317;27.658;85.326;2022-11-11T16:57:28;12.10;99.90
69204;DHT22;56317;27.658;85.326;2022-11-11T17:00:00;12.00;99.90
69204;DHT22;56317;27.658;85.326;2022-11-11T17:02:28;12.00;99.90
69204;DHT22;56317;27.658;85.326;2022-11-11T17:04:57;12.00;99.90
69204;DHT22;56317;27.658;85.326;2022-11-11T17:07:32;11.90;99.90
69204;DHT22;56317;27.658;85.326;2022-11-11T17:10:21;11.90;99.90
69204;DHT22;56317;27.658;85.326;2022-11-11T17:12:49;11.90;99.90
69204;DHT22;56317;27.658;85.326;2022-11-11T17:15:19;11.80;99.90
69204;DHT22;56317;27.658;85.326;2022-11-11T17:17:47;11.90;99.90
69204;DHT22;56317;27.658;85.326;2022-11-11T17:20:19;11.90;99.90
69204;DHT22;56317;27.658;85.326;2022-11-11T17:22:52;12.00;99.90
69204;DHT22;56317;27.658;85.326;2022-11-11T17:25:19;12.10;99.90
69204;DHT22;56317;27.658;85.326;2022-11-11T17:27:46;12.10;99.90
69204;DHT22;56317;27.658;85.326;2022-11-11T17:30:14;12.10;99.90
69204;DHT22;56317;27.658;85.326;2022-11-11T17:32:41;12.10;99.90
69204;DHT22;56317;27.658;85.326;2022-11-11T17:35:08;12.00;99.90
69204;DHT22;56317;27.658;85.326;2022-11-11T17:37:36;12.00;99.90
69204;DHT22;56317;27.658;85.326;2022-11-11T17:40:08;11.90;99.90
69204;DHT22;56317;27.658;85.326;2022-11-11T17:42:35;11.80;99.90
69204;DHT22;56317;27.658;85.326;2022-11-11T17:45:04;11.80;99.90
69204;DHT22;56317;27.658;85.326;2022-11-11T17:47:32;11.80;99.90
69204;DHT22;56317;27.658;85.326;2022-11-11T17:49:59;11.70;99.90
69204;DHT22;56317;27.658;85.326;2022-11-11T17:52:27;11.70;99.90
69204;DHT22;56317;27.658;85.326;2022-11-11T17:54:54;11.60;99.90
69204;DHT22;56317;27.658;85.326;2022-11-11T17:57:21;11.60;99.90
69204;DHT22;56317;27.658;85.326;2022-11-11T17:59:48;11.60;99.90
69204;DHT22;56317;27.658;85.326;2022-11-11T18:02:16;11.60;99.90
69204;DHT22;56317;27.658;85.326;2022-11-11T18:04:43;11.60;99.90
69204;DHT22;56317;27.658;85.326;2022-11-11T18:07:10;11.50;99.90
69204;DHT22;56317;27.658;85.326;2022-11-11T18:09:37;11.40;99.90
69204;DHT22;56317;27.658;85.326;2022-11-11T18:12:04;11.30;99.90
69204;DHT22;56317;27.658;85.326;2022-11-11T18:14:32;11.30;99.90
69204;DHT22;56317;27.658;85.326;2022-11-11T18:16:59;11.30;99.90
69204;DHT22;56317;27.658;85.326;2022-11-11T18:19:27;11.30;99.90
69204;DHT22;56317;27.658;85.326;2022-11-11T18:21:54;11.30;99.90
69204;DHT22;56317;27.658;85.326;2022-11-11T18:24:21;11.30;99.90
69204;DHT22;56317;27.658;85.326;2022-11-11T18:26:48;11.20;99.90
69204;DHT22;56317;27.658;85.326;2022-11-11T18:29:16;11.20;99.90
69204;DHT22;56317;27.658;85.326;2022-11-11T18:31:43;11.10;99.90
69204;DHT22;56317;27.658;85.326;2022-11-11T18:34:10;11.00;99.90
69204;DHT22;56317;27.658;85.326;2022-11-11T18:36:37;10.90;99.90
69204;DHT22;56317;27.658;85.326;2022-11-11T18:39:04;10.90;99.90
69204;DHT22;56317;27.658;85.326;2022-11-11T18:41:31;10.90;99.90
69204;DHT22;56317;27.658;85.326;2022-11-11T18:43:59;10.90;99.90
69204;DHT22;56317;27.658;85.326;2022-11-11T18:46:28;10.90;99.90
69204;DHT22;56317;27.658;85.326;2022-11-11T18:49:00;11.00;99.90
69204;DHT22;56317;27.658;85.326;2022-11-11T18:51:29;11.00;99.90
69204;DHT22;56317;27.658;85.326;2022-11-11T18:53:59;11.00;99.90
69204;DHT22;56317;27.658;85.326;2022-11-11T18:56:28;11.00;99.90
69204;DHT22;56317;27.658;85.326;2022-11-11T18:58:57;10.90;99.90
69204;DHT22;56317;27.658;85.326;2022-11-11T19:01:27;10.90;99.90
69204;DHT22;56317;27.658;85.326;2022-11-11T19:04:00;10.90;99.90
69204;DHT22;56317;27.658;85.326;2022-11-11T19:06:29;10.80;99.90
69204;DHT22;56317;27.658;85.326;2022-11-11T19:08:59;10.80;99.90
69204;DHT22;56317;27.658;85.326;2022-11-11T19:11:27;10.70;99.90
69204;DHT22;56317;27.658;85.326;2022-11-11T19:13:56;10.60;99.90
69204;DHT22;56317;27.658;85.326;2022-11-11T19:16:23;10.60;99.90
69204;DHT22;56317;27.658;85.326;2022-11-11T19:18:52;10.50;99.90
69204;DHT22;56317;27.658;85.326;2022-11-11T19:21:24;10.60;99.90
69204;DHT22;56317;27.658;85.326;2022-11-11T19:23:54;10.60;99.90
69204;DHT22;56317;27.658;85.326;2022-11-11T19:26:24;10.60;99.90
69204;DHT22;56317;27.658;85.326;2022-11-11T19:28:52;10.70;99.90
69204;DHT22;56317;27.658;85.326;2022-11-11T19:31:22;10.70;99.90
69204;DHT22;56317;27.658;85.326;2022-11-11T19:33:51;10.70;99.90
69204;DHT22;56317;27.658;85.326;2022-11-11T19:36:20;10.70;99.90
69204;DHT22;56317;27.658;85.326;2022-11-11T19:38:49;10.70;99.90
69204;DHT22;56317;27.658;85.326;2022-11-11T19:41:21;10.60;99.90
69204;DHT22;56317;27.658;85.326;2022-11-11T19:43:50;10.70;99.90
69204;DHT22;56317;27.658;85.326;2022-11-11T19:46:22;10.70;99.90
69204;DHT22;56317;27.658;85.326;2022-11-11T19:48:53;10.70;99.90
69204;DHT22;56317;27.658;85.326;2022-11-11T19:51:22;10.80;99.90
69204;DHT22;56317;27.658;85.326;2022-11-11T19:53:50;10.80;99.90
69204;DHT22;56317;27.658;85.326;2022-11-11T19:56:18;10.80;99.90
69204;DHT22;56317;27.658;85.326;2022-11-11T19:58:47;10.80;99.90
69204;DHT22;56317;27.658;85.326;2022-11-11T20:01:23;10.80;99.90
69204;DHT22;56317;27.658;85.326;2022-11-11T20:03:51;10.80;99.90
69204;DHT22;56317;27.658;85.326;2022-11-11T20:06:38;10.80;99.90
69204;DHT22;56317;27.658;85.326;2022-11-11T20:09:07;10.80;99.90
69204;DHT22;56317;27.658;85.326;2022-11-11T20:11:38;10.80;99.90
69204;DHT22;56317;27.658;85.326;2022-11-11T20:14:06;10.70;99.90
69204;DHT22;56317;27.658;85.326;2022-11-11T20:16:34;10.60;99.90
69204;DHT22;56317;27.658;85.326;2022-11-11T20:19:01;10.60;99.90
69204;DHT22;56317;27.658;85.326;2022-11-11T20:21:29;10.50;99.90
69204;DHT22;56317;27.658;85.326;2022-11-11T20:23:57;10.40;99.90
69204;DHT22;56317;27.658;85.326;2022-11-11T20:26:24;10.50;99.90
69204;DHT22;56317;27.658;85.326;2022-11-11T20:28:56;10.40;99.90
69204;DHT22;56317;27.658;85.326;2022-11-11T20:31:24;10.40;99.90
69204;DHT22;56317;27.658;85.326;2022-11-11T20:33:53;10.30;99.90
69204;DHT22;56317;27.658;85.326;2022-11-11T20:36:21;10.30;99.90
69204;DHT22;56317;27.658;85.326;2022-11-11T20:38:49;10.30;99.90
69204;DHT22;56317;27.658;85.326;2022-11-11T20:41:18;10.30;99.90
69204;DHT22;56317;27.658;85.326;2022-11-11T20:43:46;10.30;99.90
69204;DHT22;56317;27.658;85.326;2022-11-11T20:46:16;10.30;99.90
69204;DHT22;56317;27.658;85.326;2022-11-11T20:48:45;10.30;99.90
69204;DHT22;56317;27.658;85.326;2022-11-11T20:51:18;10.20;99.90
69204;DHT22;56317;27.658;85.326;2022-11-11T20:53:46;10.20;99.90
69204;DHT22;56317;27.658;85.326;2022-11-11T20:56:15;10.20;99.90
69204;DHT22;56317;27.658;85.326;2022-11-11T20:58:42;10.20;99.90
69204;DHT22;56317;27.658;85.326;2022-11-11T21:01:15;10.20;99.90
69204;DHT22;56317;27.658;85.326;2022-11-11T21:03:43;10.20;99.90
69204;DHT22;56317;27.658;85.326;2022-11-11T21:06:12;10.20;99.90
69204;DHT22;56317;27.658;85.326;2022-11-11T21:08:42;10.20;99.90
69204;DHT22;56317;27.658;85.326;2022-11-11T21:11:11;10.10;99.90
69204;DHT22;56317;27.658;85.326;2022-11-11T21:13:40;10.10;99.90
69204;DHT22;56317;27.658;85.326;2022-11-11T21:16:19;10.10;99.90
69204;DHT22;56317;27.658;85.326;2022-11-11T21:18:47;10.10;99.90
69204;DHT22;56317;27.658;85.326;2022-11-11T21:21:20;10.10;99.90
69204;DHT22;56317;27.658;85.326;2022-11-11T21:23:53;10.10;99.90
69204;DHT22;56317;27.658;85.326;2022-11-11T21:26:20;10.00;99.90
69204;DHT22;56317;27.658;85.326;2022-11-11T21:28:47;10.00;99.90
69204;DHT22;56317;27.658;85.326;2022-11-11T21:31:26;10.10;99.90
69204;DHT22;56317;27.658;85.326;2022-11-11T21:33:55;10.10;99.90
69204;DHT22;56317;27.658;85.326;2022-11-11T21:36:24;10.10;99.90
69204;DHT22;56317;27.658;85.326;2022-11-11T21:38:51;10.10;99.90
69204;DHT22;56317;27.658;85.326;2022-11-11T21:41:21;10.10;99.90
69204;DHT22;56317;27.658;85.326;2022-11-11T21:43:48;10.10;99.90
69204;DHT22;56317;27.658;85.326;2022-11-11T21:46:18;10.00;99.90
69204;DHT22;56317;27.658;85.326;2022-11-11T21:48:47;10.00;99.90
69204;DHT22;56317;27.658;85.326;2022-11-11T21:51:17;10.00;99.90
69204;DHT22;56317;27.658;85.326;2022-11-11T21:53:58;10.00;99.90
69204;DHT22;56317;27.658;85.326;2022-11-11T21:56:28;10.00;99.90
69204;DHT22;56317;27.658;85.326;2022-11-11T21:58:57;9.90;99.90
69204;DHT22;56317;27.658;85.326;2022-11-11T22:01:36;9.90;99.90
69204;DHT22;56317;27.658;85.326;2022-11-11T22:04:05;9.90;99.90
69204;DHT22;56317;27.658;85.326;2022-11-11T22:06:33;9.80;99.90
69204;DHT22;56317;27.658;85.326;2022-11-11T22:09:00;9.80;99.90
69204;DHT22;56317;27.658;85.326;2022-11-11T22:11:31;9.80;99.90
69204;DHT22;56317;27.658;85.326;2022-11-11T22:13:59;9.80;99.90
69204;DHT22;56317;27.658;85.326;2022-11-11T22:16:32;9.80;99.90
69204;DHT22;56317;27.658;85.326;2022-11-11T22:19:03;9.80;99.90
69204;DHT22;56317;27.658;85.326;2022-11-11T22:21:31;9.80;99.90
69204;DHT22;56317;27.658;85.326;2022-11-11T22:24:01;9.80;99.90
69204;DHT22;56317;27.658;85.326;2022-11-11T22:26:36;9.80;99.90
69204;DHT22;56317;27.658;85.326;2022-11-11T22:29:05;9.80;99.90
69204;DHT22;56317;27.658;85.326;2022-11-11T22:31:33;9.80;99.90
69204;DHT22;56317;27.658;85.326;2022-11-11T22:34:13;9.80;99.90
69204;DHT22;56317;27.658;85.326;2022-11-11T22:36:41;9.70;99.90
69204;DHT22;56317;27.658;85.326;2022-11-11T22:39:08;9.70;99.90
69204;DHT22;56317;27.658;85.326;2022-11-11T22:41:38;9.70;99.90
69204;DHT22;56317;27.658;85.326;2022-11-11T22:44:05;9.70;99.90
69204;DHT22;56317;27.658;85.326;2022-11-11T22:46:33;9.70;99.90
69204;DHT22;56317;27.658;85.326;2022-11-11T22:49:05;9.70;99.90
69204;DHT22;56317;27.658;85.326;2022-11-11T22:51:39;9.70;99.90
69204;DHT22;56317;27.658;85.326;2022-11-11T22:54:06;9.70;99.90
69204;DHT22;56317;27.658;85.326;2022-11-11T22:56:34;9.70;99.90
69204;DHT22;56317;27.658;85.326;2022-11-11T22:59:02;9.70;99.90
69204;DHT22;56317;27.658;85.326;2022-11-11T23:01:31;9.70;99.90
69204;DHT22;56317;27.658;85.326;2022-11-11T23:04:00;9.80;99.90
69204;DHT22;56317;27.658;85.326;2022-11-11T23:06:30;9.80;99.90
69204;DHT22;56317;27.658;85.326;2022-11-11T23:08:58;9.90;99.90
69204;DHT22;56317;27.658;85.326;2022-11-11T23:11:27;10.00;99.90
69204;DHT22;56317;27.658;85.326;2022-11-11T23:14:00;10.20;99.90
69204;DHT22;56317;27.658;85.326;2022-11-11T23:16:29;10.30;99.90
69204;DHT22;56317;27.658;85.326;2022-11-11T23:18:57;10.40;99.90
69204;DHT22;56317;27.658;85.326;2022-11-11T23:21:26;10.50;99.90
69204;DHT22;56317;27.658;85.326;2022-11-11T23:23:54;10.60;99.90
69204;DHT22;56317;27.658;85.326;2022-11-11T23:26:24;10.70;99.90
69204;DHT22;56317;27.658;85.326;2022-11-11T23:28:52;10.80;99.90
69204;DHT22;56317;27.658;85.326;2022-11-11T23:31:30;10.90;99.90
69204;DHT22;56317;27.658;85.326;2022-11-11T23:34:00;11.00;99.90
69204;DHT22;56317;27.658;85.326;2022-11-11T23:36:31;11.00;99.90
69204;DHT22;56317;27.658;85.326;2022-11-11T23:38:58;11.00;99.90
69204;DHT22;56317;27.658;85.326;2022-11-11T23:41:26;10.90;99.90
69204;DHT22;56317;27.658;85.326;2022-11-11T23:43:53;11.00;99.90
69204;DHT22;56317;27.658;85.326;2022-11-11T23:46:21;11.00;99.90
69204;DHT22;56317;27.658;85.326;2022-11-11T23:48:48;10.90;99.90
69204;DHT22;56317;27.658;85.326;2022-11-11T23:51:15;10.90;99.90
69204;DHT22;56317;27.658;85.326;2022-11-11T23:53:44;10.80;99.90
69204;DHT22;56317;27.658;85.326;2022-11-11T23:56:11;10.60;99.90
69204;DHT22;56317;27.658;85.326;2022-11-11T23:58:38;10.50;99.90
